Aviation Digital Data Service (ADDS)

Output produced by METARs form (1027 UTC 26 September 2016)
found at http://aviationweather.gov/adds/metars/
 
KLWB 261020Z 2610/2706 00000KT 5SM BR OVC014 
     FM261500 19005KT 6SM HZ OVC015 
     FM261900 21006KT P6SM VCSH BKN025 OVC050 
     FM262200 24005KT 5SM TSRA OVC025CB 
     FM270100 26004KT 3SM SHRA BR OVC015